createdAt,value
2022-09-09T00:08:48.281Z,12.09
2022-09-09T00:19:04.287Z,12.02
2022-09-09T00:29:23.948Z,11.98
2022-09-09T00:39:37.095Z,11.94
2022-09-09T00:49:59.253Z,11.96
2022-09-09T01:10:48.214Z,11.97
2022-09-09T01:21:03.119Z,11.96
2022-09-09T01:31:13.520Z,11.99
2022-09-09T01:41:19.366Z,12.04
2022-09-09T01:51:25.734Z,12.09
2022-09-09T02:01:47.976Z,12.07
2022-09-09T02:12:00.976Z,12.13
2022-09-09T02:22:07.663Z,12.17
2022-09-09T02:32:16.964Z,12.24
2022-09-09T02:42:23.386Z,12.28
2022-09-09T02:52:35.078Z,12.31
2022-09-09T03:02:40.988Z,12.36
2022-09-09T03:12:46.783Z,12.39
2022-09-09T03:22:52.518Z,12.39
2022-09-09T03:32:58.514Z,12.43
2022-09-09T03:43:04.233Z,12.46
2022-09-09T03:53:09.823Z,12.53
2022-09-09T04:03:16.613Z,12.58
2022-09-09T04:13:22.876Z,12.66
2022-09-09T04:23:30.550Z,12.73
2022-09-09T04:33:40.069Z,12.78
2022-09-09T04:43:46.551Z,12.85
2022-09-09T04:53:52.464Z,12.97
2022-09-09T05:03:58.830Z,13.14
2022-09-09T05:14:04.921Z,13.33
2022-09-09T05:24:10.710Z,13.54
2022-09-09T05:34:16.455Z,13.80
2022-09-09T05:44:22.161Z,14.04
2022-09-09T05:54:27.755Z,14.31
2022-09-09T06:04:33.460Z,14.53
2022-09-09T06:14:42.082Z,14.72
2022-09-09T06:24:50.082Z,15.03
2022-09-09T06:34:55.638Z,15.27
2022-09-09T06:45:01.336Z,15.54
2022-09-09T06:55:07.968Z,15.94
2022-09-09T07:05:13.911Z,16.38
2022-09-09T07:15:20.738Z,16.64
2022-09-09T07:25:27.797Z,16.93
2022-09-09T07:35:33.472Z,17.44
2022-09-09T07:45:43.061Z,19.82
2022-09-09T07:55:48.706Z,23.13
2022-09-09T08:05:54.453Z,21.42
2022-09-09T08:16:07.849Z,21.50
2022-09-09T08:26:18.109Z,24.45
2022-09-09T08:36:26.730Z,27.03
2022-09-09T08:46:40.680Z,27.81
2022-09-09T08:56:46.722Z,24.89
2022-09-09T09:07:01.951Z,24.74
2022-09-09T09:17:14.711Z,23.88
2022-09-09T09:27:30.143Z,22.90
2022-09-09T09:37:37.675Z,22.46
2022-09-09T09:47:42.585Z,22.12
2022-09-09T09:57:48.371Z,22.30
2022-09-09T10:08:07.697Z,22.23
2022-09-09T10:18:28.375Z,22.62
2022-09-09T10:28:49.042Z,22.81
2022-09-09T10:39:00.158Z,22.56
2022-09-09T10:49:22.168Z,22.49
2022-09-09T10:59:31.496Z,22.19
2022-09-09T11:09:43.548Z,22.21
2022-09-09T11:19:49.778Z,22.57
2022-09-09T11:30:32.326Z,22.54
2022-09-09T11:40:44.573Z,22.53
2022-09-09T11:51:01.685Z,22.20
2022-09-09T12:01:16.919Z,22.25
2022-09-09T12:11:30.103Z,22.12
2022-09-09T12:21:43.744Z,22.21
2022-09-09T12:31:58.546Z,21.88
2022-09-09T12:42:05.381Z,22.03
2022-09-09T12:52:16.886Z,22.69
2022-09-09T13:02:25.277Z,23.12
2022-09-09T13:12:31.130Z,23.52
2022-09-09T13:22:39.859Z,23.61
2022-09-09T13:32:45.573Z,23.26
2022-09-09T13:42:57.293Z,22.86
2022-09-09T13:53:02.860Z,22.87
2022-09-09T14:03:08.617Z,22.74
2022-09-09T14:13:14.272Z,22.83
2022-09-09T14:23:23.073Z,22.75
2022-09-09T14:33:30.139Z,22.83
2022-09-09T14:43:35.808Z,22.86
2022-09-09T14:53:42.118Z,23.02
2022-09-09T15:03:53.457Z,23.14
2022-09-09T15:13:59.643Z,23.24
2022-09-09T15:24:06.594Z,23.29
2022-09-09T15:34:12.500Z,23.34
2022-09-09T15:44:20.034Z,23.07
2022-09-09T15:54:27.382Z,22.53
2022-09-09T16:04:35.078Z,21.86
2022-09-09T16:14:41.813Z,21.23
2022-09-09T16:24:47.556Z,20.62
2022-09-09T16:34:53.400Z,20.22
2022-09-09T16:44:59.206Z,19.95
2022-09-09T16:55:06.223Z,19.72
2022-09-09T17:05:12.226Z,19.33
2022-09-09T17:15:19.142Z,18.93
2022-09-09T17:25:25.550Z,18.57
2022-09-09T17:35:31.219Z,18.22
2022-09-09T17:45:36.957Z,17.90
2022-09-09T17:55:42.771Z,17.57
2022-09-09T18:05:48.749Z,17.25
2022-09-09T18:15:54.455Z,16.97
2022-09-09T18:26:00.191Z,16.73
2022-09-09T18:36:10.566Z,16.50
2022-09-09T18:46:17.939Z,16.28
2022-09-09T18:56:24.282Z,16.08
2022-09-09T19:06:32.039Z,15.87
2022-09-09T19:16:39.253Z,15.67
2022-09-09T19:26:46.942Z,15.48
2022-09-09T19:36:53.335Z,15.32
2022-09-09T19:47:00.882Z,15.14
2022-09-09T19:57:07.327Z,14.99
2022-09-09T20:07:13.033Z,14.81
2022-09-09T20:17:18.722Z,14.64
2022-09-09T20:27:24.587Z,14.48
2022-09-09T20:37:31.993Z,14.35
2022-09-09T20:47:37.642Z,14.35
2022-09-09T20:57:43.503Z,14.40
2022-09-09T21:07:49.509Z,14.42
2022-09-09T21:17:55.339Z,14.45
2022-09-09T21:28:01.079Z,14.43
2022-09-09T21:38:07.265Z,14.34
2022-09-09T21:48:16.258Z,14.26
2022-09-09T21:58:21.904Z,14.17
2022-09-09T22:08:27.692Z,14.12
2022-09-09T22:18:34.778Z,14.11
2022-09-09T22:28:40.580Z,14.08
2022-09-09T22:38:46.307Z,13.95
2022-09-09T22:48:51.998Z,13.86
2022-09-09T22:58:58.748Z,13.87
2022-09-09T23:09:05.953Z,13.87
2022-09-09T23:19:15.193Z,13.86
2022-09-09T23:29:21.576Z,13.87
2022-09-09T23:39:27.428Z,13.84
2022-09-09T23:49:34.027Z,13.79
2022-09-09T23:59:39.662Z,13.75
